Terminal Aerodrome Forecast
Issued by NWS Atlanta, GA

Home | Current Version | Previous Version | Text Only | Print | Product List | Glossary On
Versions: 1 2 3 4 5 6 7 8 9 10 11 12 13 14 15 16 17 18 19 20 21 22 23
000
FTUS42 KFFC 121700
TAFMCN
TAF
KMCN 121721Z 1218/1318 08007KT P6SM BKN050
      TEMPO 1221/1224 5SM TSRA BR BKN025CB
     FM130200 12003KT P6SM FEW250
     FM130900 12003KT 3SM BR SKC
     FM131300 15006KT P6SM SCT045=

USA.gov is the U.S. government's official web portal to all federal, state and local government web resources and services.